Terminal Aerodrome Forecast
Issued by NWS Wilmington, OH

Current Version | Previous Version | Graphics & Text | Print | Product List | Glossary On
Versions: 1 2 3 4 5 6 7 8 9 10 11 12 13 14 15 16 17 18 19 20 21 22 23 24 25
000
FTUS41 KILN 241000 AAB
TAFCVG
TAF AMD
KCVG 241000Z 2410/2512 03013KT P6SM BKN050
      TEMPO 2410/2414 SCT050
     FM241400 02010KT P6SM BKN040
     FM242300 04003KT P6SM SKC=

USA.gov is the U.S. government's official web portal to all federal, state and local government web resources and services.